createdAt,value
2023-05-23T00:03:22.971Z,24.10
2023-05-23T00:08:26.701Z,24.10
2023-05-23T00:13:34.848Z,24.10
2023-05-23T00:18:38.445Z,24.10
2023-05-23T00:23:42.327Z,24.10
2023-05-23T00:28:47.126Z,24.10
2023-05-23T00:33:50.659Z,24.10
2023-05-23T00:38:54.338Z,24.10
2023-05-23T00:43:59.834Z,24.10
2023-05-23T00:49:04.108Z,24.10
2023-05-23T00:54:08.362Z,24.10
2023-05-23T00:59:13.888Z,24.10
2023-05-23T01:04:17.673Z,24.10
2023-05-23T01:09:22.341Z,24.10
2023-05-23T01:14:39.545Z,24.10
2023-05-23T01:20:02.200Z,24.10
2023-05-23T01:25:25.284Z,24.10
2023-05-23T01:30:34.260Z,24.10
2023-05-23T01:35:39.062Z,24.10
2023-05-23T01:40:42.554Z,24.10
2023-05-23T01:45:49.156Z,24.10
2023-05-23T01:50:53.104Z,24.10
2023-05-23T01:55:57.377Z,24.10
2023-05-23T02:01:02.436Z,24.10
2023-05-23T02:06:07.508Z,24.00
2023-05-23T02:11:11.517Z,24.10
2023-05-23T02:16:18.058Z,24.00
2023-05-23T02:21:22.045Z,24.00
2023-05-23T02:26:27.628Z,24.00
2023-05-23T02:31:32.709Z,24.00
2023-05-23T02:36:37.082Z,24.00
2023-05-23T02:41:41.091Z,24.00
2023-05-23T02:46:46.086Z,24.00
2023-05-23T02:51:49.650Z,24.00
2023-05-23T02:56:54.851Z,24.00
2023-05-23T03:02:00.691Z,24.00
2023-05-23T03:07:07.130Z,24.00
2023-05-23T03:12:14.944Z,24.00
2023-05-23T03:17:20.216Z,24.00
2023-05-23T03:22:23.680Z,24.00
2023-05-23T03:27:27.028Z,24.00
2023-05-23T03:32:31.972Z,24.00
2023-05-23T03:37:35.353Z,24.00
2023-05-23T03:42:40.205Z,24.00
2023-05-23T03:47:46.970Z,24.00
2023-05-23T03:52:50.902Z,24.00
2023-05-23T03:57:54.461Z,24.00
2023-05-23T04:02:59.455Z,24.00
2023-05-23T04:08:03.142Z,24.00
2023-05-23T04:13:09.673Z,24.00
2023-05-23T04:18:17.410Z,24.00
2023-05-23T04:23:21.213Z,24.00
2023-05-23T04:28:28.732Z,24.00
2023-05-23T04:33:34.263Z,24.00
2023-05-23T04:38:41.101Z,24.00
2023-05-23T04:43:46.070Z,24.00
2023-05-23T04:49:04.086Z,24.00
2023-05-23T04:54:07.734Z,24.00
2023-05-23T04:59:11.503Z,24.00
2023-05-23T05:04:16.715Z,24.00
2023-05-23T05:09:22.137Z,24.00
2023-05-23T05:14:27.863Z,24.00
2023-05-23T05:19:33.108Z,23.90
2023-05-23T05:24:36.619Z,23.90
2023-05-23T05:29:40.113Z,24.00
2023-05-23T05:34:49.128Z,23.90
2023-05-23T05:39:54.842Z,23.90
2023-05-23T05:44:58.522Z,23.90
2023-05-23T05:50:03.674Z,23.90
2023-05-23T05:55:11.304Z,23.90
2023-05-23T06:00:19.373Z,23.90
2023-05-23T06:05:24.278Z,23.90
2023-05-23T06:10:28.008Z,23.90
2023-05-23T06:15:31.542Z,23.90
2023-05-23T06:20:36.416Z,23.90
2023-05-23T06:25:51.208Z,23.90
2023-05-23T06:30:54.652Z,23.90
2023-05-23T06:35:59.454Z,23.90
2023-05-23T06:41:03.863Z,23.90
2023-05-23T06:46:07.945Z,23.90
2023-05-23T06:51:12.761Z,23.90
2023-05-23T06:56:17.063Z,23.90
2023-05-23T07:01:32.635Z,23.90
2023-05-23T07:06:39.842Z,23.80
2023-05-23T07:11:44.572Z,23.90
2023-05-23T07:16:49.306Z,23.90
2023-05-23T07:21:54.970Z,23.90
2023-05-23T07:26:58.986Z,23.90
2023-05-23T07:32:03.581Z,23.80
2023-05-23T07:37:08.588Z,23.80
2023-05-23T07:42:18.640Z,23.70
2023-05-23T07:47:22.238Z,23.60
2023-05-23T07:52:27.113Z,23.50
2023-05-23T07:57:30.909Z,23.60
2023-05-23T08:02:34.566Z,23.60
2023-05-23T08:07:39.984Z,23.50
2023-05-23T08:12:43.698Z,23.60
2023-05-23T08:17:51.676Z,23.50
2023-05-23T08:22:58.356Z,23.50
2023-05-23T08:28:02.835Z,23.50
2023-05-23T08:33:27.857Z,23.50
2023-05-23T08:38:36.232Z,23.40
2023-05-23T08:43:48.032Z,23.50
2023-05-23T08:49:00.987Z,23.50
2023-05-23T08:54:09.298Z,23.50
2023-05-23T08:59:14.318Z,23.60
2023-05-23T09:04:19.368Z,23.50
2023-05-23T09:09:31.854Z,23.60
2023-05-23T09:14:38.308Z,23.50
2023-05-23T09:19:46.925Z,23.50
2023-05-23T09:25:00.319Z,23.50
2023-05-23T09:30:09.875Z,23.50
2023-05-23T09:35:14.547Z,23.50
2023-05-23T09:40:21.548Z,23.50
2023-05-23T09:45:32.999Z,23.40
2023-05-23T09:50:37.968Z,23.40
2023-05-23T09:55:42.984Z,23.30
2023-05-23T10:00:48.754Z,23.20
2023-05-23T10:05:58.279Z,23.20
2023-05-23T10:12:44.610Z,23.20
2023-05-23T10:18:17.231Z,23.20
2023-05-23T10:23:21.328Z,23.20
2023-05-23T10:28:27.312Z,23.20
2023-05-23T10:33:36.629Z,23.20
2023-05-23T10:38:48.942Z,23.20
2023-05-23T10:44:08.742Z,23.20
2023-05-23T10:49:12.978Z,23.20
2023-05-23T10:54:16.793Z,23.10
2023-05-23T10:59:29.037Z,23.20
2023-05-23T11:04:32.413Z,23.20
2023-05-23T11:09:36.125Z,23.10
2023-05-23T11:14:56.625Z,23.10
2023-05-23T11:20:06.750Z,23.00
2023-05-23T11:25:12.330Z,23.10
2023-05-23T11:30:18.853Z,23.10
2023-05-23T11:35:23.196Z,23.20
2023-05-23T11:40:30.198Z,23.30
2023-05-23T11:45:37.145Z,23.30
2023-05-23T11:50:49.413Z,23.40
2023-05-23T11:55:55.347Z,23.40
2023-05-23T12:01:05.108Z,23.40
2023-05-23T12:06:09.963Z,23.40
2023-05-23T12:11:15.337Z,23.50
2023-05-23T12:16:20.164Z,23.50
2023-05-23T12:21:27.721Z,23.50
2023-05-23T12:26:31.272Z,23.50
2023-05-23T12:31:36.081Z,23.50
2023-05-23T12:36:48.634Z,23.50
2023-05-23T12:41:53.172Z,23.50
2023-05-23T12:46:58.126Z,23.60
2023-05-23T12:52:01.610Z,23.60
2023-05-23T12:57:05.163Z,23.60
2023-05-23T13:02:10.134Z,23.60
2023-05-23T13:07:13.545Z,23.60
2023-05-23T13:12:17.038Z,23.60
2023-05-23T13:17:21.973Z,23.60
2023-05-23T13:22:25.841Z,23.60
2023-05-23T13:27:29.516Z,23.70
2023-05-23T13:32:34.301Z,23.70
2023-05-23T13:37:38.123Z,23.70
2023-05-23T13:42:41.748Z,23.70
2023-05-23T13:47:47.310Z,23.70
2023-05-23T13:52:51.073Z,23.70
2023-05-23T13:57:54.448Z,23.70
2023-05-23T14:02:59.183Z,23.70
2023-05-23T14:08:02.794Z,23.80
2023-05-23T14:13:07.696Z,23.70
2023-05-23T14:18:12.737Z,23.70
2023-05-23T14:23:16.323Z,23.80
2023-05-23T14:28:19.711Z,23.80
2023-05-23T14:33:24.690Z,23.80
2023-05-23T14:38:28.291Z,23.90
2023-05-23T14:43:31.677Z,23.90
2023-05-23T14:48:36.636Z,23.80
2023-05-23T14:53:40.037Z,23.90
2023-05-23T14:58:45.755Z,23.90
2023-05-23T15:03:50.633Z,24.00
2023-05-23T15:08:54.182Z,24.00
2023-05-23T15:13:57.615Z,24.00
2023-05-23T15:19:02.533Z,24.00
2023-05-23T15:24:08.549Z,24.10
2023-05-23T15:29:13.227Z,24.10
2023-05-23T15:34:18.176Z,24.10
2023-05-23T15:39:22.194Z,24.20
2023-05-23T15:44:25.618Z,24.20
2023-05-23T15:49:30.666Z,24.10
2023-05-23T15:54:34.056Z,24.20
2023-05-23T15:59:38.442Z,24.10
2023-05-23T16:04:43.415Z,24.20
2023-05-23T16:09:46.860Z,24.20
2023-05-23T16:14:50.488Z,24.20
2023-05-23T16:19:55.298Z,24.20
2023-05-23T16:25:01.696Z,24.20
2023-05-23T16:30:07.044Z,24.20
2023-05-23T16:35:12.177Z,24.20
2023-05-23T16:40:16.706Z,24.20
2023-05-23T16:45:21.285Z,24.20
2023-05-23T16:50:26.136Z,24.20
2023-05-23T16:55:30.338Z,24.30
2023-05-23T17:00:35.782Z,24.30
2023-05-23T17:05:40.846Z,24.30
2023-05-23T17:10:44.744Z,24.30
2023-05-23T17:15:48.199Z,24.20
2023-05-23T17:20:53.052Z,24.20
2023-05-23T17:25:58.786Z,24.20
2023-05-23T17:31:02.207Z,24.20
2023-05-23T17:36:07.571Z,24.30
2023-05-23T17:41:11.032Z,24.20
2023-05-23T17:46:14.447Z,24.20
2023-05-23T17:51:19.350Z,24.20
2023-05-23T17:56:24.862Z,24.20
2023-05-23T18:01:29.188Z,24.20
2023-05-23T18:06:33.997Z,24.20
2023-05-23T18:11:38.062Z,24.20
2023-05-23T18:16:41.854Z,24.20
2023-05-23T18:21:46.898Z,24.20
2023-05-23T18:26:50.405Z,24.20
2023-05-23T18:31:54.164Z,24.20
2023-05-23T18:36:58.991Z,24.20
2023-05-23T18:42:02.421Z,24.20
2023-05-23T18:47:06.460Z,24.30
2023-05-23T18:52:11.694Z,24.20
2023-05-23T18:57:17.356Z,24.20
2023-05-23T19:02:21.001Z,24.20
2023-05-23T19:07:25.913Z,24.30
2023-05-23T19:12:29.302Z,24.20
2023-05-23T19:17:32.899Z,24.20
2023-05-23T19:22:50.350Z,24.30
2023-05-23T19:27:54.763Z,24.20
2023-05-23T19:33:01.202Z,24.20
2023-05-23T19:38:06.061Z,24.20
2023-05-23T19:43:09.456Z,24.20
2023-05-23T19:48:12.901Z,24.20
2023-05-23T19:53:17.809Z,24.20
2023-05-23T19:58:21.646Z,24.10
2023-05-23T20:03:25.112Z,24.10
2023-05-23T20:08:29.908Z,24.10
2023-05-23T20:13:33.288Z,24.10
2023-05-23T20:18:36.715Z,24.10
2023-05-23T20:23:43.484Z,24.00
2023-05-23T20:28:47.103Z,24.10
2023-05-23T20:33:51.354Z,24.00
2023-05-23T20:38:56.151Z,24.00
2023-05-23T20:44:00.308Z,24.00
2023-05-23T20:49:04.416Z,24.00
2023-05-23T20:54:09.581Z,24.00
2023-05-23T20:59:13.189Z,24.00
2023-05-23T21:04:18.734Z,24.00
2023-05-23T21:09:23.731Z,24.00
2023-05-23T21:14:27.302Z,24.00
2023-05-23T21:19:31.030Z,24.00
2023-05-23T21:24:35.914Z,24.00
2023-05-23T21:29:39.281Z,24.10
2023-05-23T21:34:42.711Z,24.00
2023-05-23T21:39:51.973Z,24.00
2023-05-23T21:44:56.162Z,24.00
2023-05-23T21:49:59.697Z,24.00
2023-05-23T21:55:04.832Z,24.00
2023-05-23T22:00:12.968Z,24.00
2023-05-23T22:05:16.670Z,24.00
2023-05-23T22:10:21.535Z,24.00
2023-05-23T22:15:25.009Z,24.00
2023-05-23T22:20:29.747Z,24.00
2023-05-23T22:25:35.219Z,23.90
2023-05-23T22:30:38.620Z,23.90
2023-05-23T22:35:42.876Z,23.90
2023-05-23T22:40:47.844Z,23.90
2023-05-23T22:45:52.413Z,23.90
2023-05-23T22:50:57.154Z,23.90
2023-05-23T22:56:02.476Z,23.90
2023-05-23T23:01:06.339Z,23.90
2023-05-23T23:06:09.815Z,23.90
2023-05-23T23:11:14.606Z,23.90
2023-05-23T23:16:19.525Z,23.90
2023-05-23T23:21:23.163Z,23.90
2023-05-23T23:26:27.991Z,23.90
2023-05-23T23:31:31.560Z,23.90
2023-05-23T23:36:34.998Z,23.90
2023-05-23T23:41:39.763Z,23.90
2023-05-23T23:46:43.343Z,23.90
2023-05-23T23:51:46.868Z,23.80
2023-05-23T23:56:51.680Z,23.90
